sensor_id;sensor_type;location;lat;lon;timestamp;P1;durP1;ratioP1;P2;durP2;ratioP2
18748;SDS011;9503;53.560;10.246;2024-02-21T00:02:18;44.80;;;16.50;;
18748;SDS011;9503;53.560;10.246;2024-02-21T00:04:45;43.10;;;15.90;;
18748;SDS011;9503;53.560;10.246;2024-02-21T00:07:11;44.37;;;16.23;;
18748;SDS011;9503;53.560;10.246;2024-02-21T00:09:38;45.50;;;16.47;;
18748;SDS011;9503;53.560;10.246;2024-02-21T00:12:06;41.87;;;15.97;;
18748;SDS011;9503;53.560;10.246;2024-02-21T00:14:33;41.60;;;16.30;;
18748;SDS011;9503;53.560;10.246;2024-02-21T00:17:00;35.37;;;15.90;;
18748;SDS011;9503;53.560;10.246;2024-02-21T00:19:27;36.13;;;15.30;;
18748;SDS011;9503;53.560;10.246;2024-02-21T00:21:53;40.50;;;15.57;;
18748;SDS011;9503;53.560;10.246;2024-02-21T00:24:20;48.20;;;16.07;;
18748;SDS011;9503;53.560;10.246;2024-02-21T00:26:46;37.73;;;16.90;;
18748;SDS011;9503;53.560;10.246;2024-02-21T00:29:14;40.03;;;15.53;;
18748;SDS011;9503;53.560;10.246;2024-02-21T00:31:41;42.27;;;17.17;;
18748;SDS011;9503;53.560;10.246;2024-02-21T00:34:09;50.90;;;19.33;;
18748;SDS011;9503;53.560;10.246;2024-02-21T00:36:37;51.37;;;17.80;;
18748;SDS011;9503;53.560;10.246;2024-02-21T00:39:04;44.20;;;17.83;;
18748;SDS011;9503;53.560;10.246;2024-02-21T00:41:31;48.20;;;16.93;;
18748;SDS011;9503;53.560;10.246;2024-02-21T00:43:58;45.53;;;18.63;;
18748;SDS011;9503;53.560;10.246;2024-02-21T00:46:26;46.10;;;18.70;;
18748;SDS011;9503;53.560;10.246;2024-02-21T00:48:52;44.27;;;19.57;;
18748;SDS011;9503;53.560;10.246;2024-02-21T00:51:19;46.63;;;19.53;;
18748;SDS011;9503;53.560;10.246;2024-02-21T00:53:45;46.27;;;18.07;;
18748;SDS011;9503;53.560;10.246;2024-02-21T00:56:12;43.80;;;17.47;;
18748;SDS011;9503;53.560;10.246;2024-02-21T00:58:38;44.40;;;17.07;;
18748;SDS011;9503;53.560;10.246;2024-02-21T01:01:05;38.33;;;16.30;;
18748;SDS011;9503;53.560;10.246;2024-02-21T01:03:33;48.10;;;20.20;;
18748;SDS011;9503;53.560;10.246;2024-02-21T01:06:00;48.47;;;17.93;;
18748;SDS011;9503;53.560;10.246;2024-02-21T01:08:26;42.37;;;17.67;;
18748;SDS011;9503;53.560;10.246;2024-02-21T01:10:53;44.17;;;17.47;;
18748;SDS011;9503;53.560;10.246;2024-02-21T01:13:19;47.67;;;19.77;;
18748;SDS011;9503;53.560;10.246;2024-02-21T01:15:46;53.17;;;19.40;;
18748;SDS011;9503;53.560;10.246;2024-02-21T01:18:13;47.27;;;20.07;;
18748;SDS011;9503;53.560;10.246;2024-02-21T01:20:41;50.87;;;20.03;;
18748;SDS011;9503;53.560;10.246;2024-02-21T01:23:07;51.30;;;20.43;;
18748;SDS011;9503;53.560;10.246;2024-02-21T01:25:34;48.37;;;20.53;;
18748;SDS011;9503;53.560;10.246;2024-02-21T01:28:00;47.87;;;20.73;;
18748;SDS011;9503;53.560;10.246;2024-02-21T01:30:27;57.43;;;23.83;;
18748;SDS011;9503;53.560;10.246;2024-02-21T01:32:54;56.23;;;21.57;;
18748;SDS011;9503;53.560;10.246;2024-02-21T01:35:20;57.53;;;20.77;;
18748;SDS011;9503;53.560;10.246;2024-02-21T01:37:48;59.40;;;22.17;;
18748;SDS011;9503;53.560;10.246;2024-02-21T01:40:16;52.97;;;20.50;;
18748;SDS011;9503;53.560;10.246;2024-02-21T01:42:43;54.57;;;19.63;;
18748;SDS011;9503;53.560;10.246;2024-02-21T01:45:10;54.50;;;21.27;;
18748;SDS011;9503;53.560;10.246;2024-02-21T01:47:36;55.77;;;21.50;;
18748;SDS011;9503;53.560;10.246;2024-02-21T01:50:04;51.23;;;20.70;;
18748;SDS011;9503;53.560;10.246;2024-02-21T01:52:31;53.77;;;22.07;;
18748;SDS011;9503;53.560;10.246;2024-02-21T01:55:01;52.13;;;21.07;;
18748;SDS011;9503;53.560;10.246;2024-02-21T01:57:28;50.97;;;20.10;;
18748;SDS011;9503;53.560;10.246;2024-02-21T01:59:55;49.53;;;19.90;;
18748;SDS011;9503;53.560;10.246;2024-02-21T02:02:21;54.70;;;21.73;;
18748;SDS011;9503;53.560;10.246;2024-02-21T02:04:48;47.23;;;20.37;;
18748;SDS011;9503;53.560;10.246;2024-02-21T02:07:15;58.47;;;21.77;;
18748;SDS011;9503;53.560;10.246;2024-02-21T02:09:42;51.87;;;21.40;;
18748;SDS011;9503;53.560;10.246;2024-02-21T02:12:10;55.57;;;21.90;;
18748;SDS011;9503;53.560;10.246;2024-02-21T02:14:37;53.07;;;20.50;;
18748;SDS011;9503;53.560;10.246;2024-02-21T02:17:03;56.30;;;20.87;;
18748;SDS011;9503;53.560;10.246;2024-02-21T02:19:30;54.40;;;19.90;;
18748;SDS011;9503;53.560;10.246;2024-02-21T02:21:59;54.30;;;20.07;;
18748;SDS011;9503;53.560;10.246;2024-02-21T02:24:33;52.63;;;22.10;;
18748;SDS011;9503;53.560;10.246;2024-02-21T02:26:59;47.50;;;19.57;;
18748;SDS011;9503;53.560;10.246;2024-02-21T02:29:26;49.50;;;19.57;;
18748;SDS011;9503;53.560;10.246;2024-02-21T02:31:53;45.83;;;19.80;;
18748;SDS011;9503;53.560;10.246;2024-02-21T02:34:20;48.43;;;19.23;;
18748;SDS011;9503;53.560;10.246;2024-02-21T02:36:46;55.40;;;21.60;;
18748;SDS011;9503;53.560;10.246;2024-02-21T02:39:14;49.80;;;21.07;;
18748;SDS011;9503;53.560;10.246;2024-02-21T02:41:42;54.50;;;19.60;;
18748;SDS011;9503;53.560;10.246;2024-02-21T02:44:08;52.87;;;20.77;;
18748;SDS011;9503;53.560;10.246;2024-02-21T02:46:35;51.53;;;20.83;;
18748;SDS011;9503;53.560;10.246;2024-02-21T02:49:01;55.40;;;21.33;;
18748;SDS011;9503;53.560;10.246;2024-02-21T02:51:28;59.57;;;23.73;;
18748;SDS011;9503;53.560;10.246;2024-02-21T02:53:55;62.43;;;24.63;;
18748;SDS011;9503;53.560;10.246;2024-02-21T02:56:22;63.13;;;23.37;;
18748;SDS011;9503;53.560;10.246;2024-02-21T02:58:50;62.07;;;22.70;;
18748;SDS011;9503;53.560;10.246;2024-02-21T03:01:16;59.67;;;23.30;;
18748;SDS011;9503;53.560;10.246;2024-02-21T03:03:43;58.27;;;23.17;;
18748;SDS011;9503;53.560;10.246;2024-02-21T03:06:10;59.30;;;22.67;;
18748;SDS011;9503;53.560;10.246;2024-02-21T03:08:37;58.63;;;22.07;;
18748;SDS011;9503;53.560;10.246;2024-02-21T03:11:05;66.00;;;24.57;;
18748;SDS011;9503;53.560;10.246;2024-02-21T03:13:31;58.10;;;22.30;;
18748;SDS011;9503;53.560;10.246;2024-02-21T03:15:59;58.10;;;23.23;;
18748;SDS011;9503;53.560;10.246;2024-02-21T03:18:26;64.20;;;24.73;;
18748;SDS011;9503;53.560;10.246;2024-02-21T03:20:52;61.63;;;23.13;;
18748;SDS011;9503;53.560;10.246;2024-02-21T03:23:19;68.67;;;26.07;;
18748;SDS011;9503;53.560;10.246;2024-02-21T03:25:46;63.77;;;24.13;;
18748;SDS011;9503;53.560;10.246;2024-02-21T03:28:12;60.07;;;24.10;;
18748;SDS011;9503;53.560;10.246;2024-02-21T03:30:39;66.57;;;24.27;;
18748;SDS011;9503;53.560;10.246;2024-02-21T03:33:07;65.67;;;25.93;;
18748;SDS011;9503;53.560;10.246;2024-02-21T03:35:33;66.00;;;25.30;;
18748;SDS011;9503;53.560;10.246;2024-02-21T03:38:00;55.10;;;23.83;;
18748;SDS011;9503;53.560;10.246;2024-02-21T03:40:27;60.30;;;23.43;;
18748;SDS011;9503;53.560;10.246;2024-02-21T03:42:53;72.50;;;25.30;;
18748;SDS011;9503;53.560;10.246;2024-02-21T03:45:20;69.30;;;26.40;;
18748;SDS011;9503;53.560;10.246;2024-02-21T03:47:49;57.90;;;25.87;;
18748;SDS011;9503;53.560;10.246;2024-02-21T03:50:17;49.17;;;21.57;;
18748;SDS011;9503;53.560;10.246;2024-02-21T03:52:44;60.27;;;22.83;;
18748;SDS011;9503;53.560;10.246;2024-02-21T03:55:10;64.23;;;24.07;;
18748;SDS011;9503;53.560;10.246;2024-02-21T03:57:37;58.50;;;23.07;;
18748;SDS011;9503;53.560;10.246;2024-02-21T04:00:04;52.73;;;22.53;;
18748;SDS011;9503;53.560;10.246;2024-02-21T04:02:36;58.03;;;22.73;;
18748;SDS011;9503;53.560;10.246;2024-02-21T04:05:02;51.13;;;21.53;;
18748;SDS011;9503;53.560;10.246;2024-02-21T04:07:31;50.77;;;21.83;;
18748;SDS011;9503;53.560;10.246;2024-02-21T04:09:57;53.60;;;21.73;;
18748;SDS011;9503;53.560;10.246;2024-02-21T04:12:24;54.23;;;21.67;;
18748;SDS011;9503;53.560;10.246;2024-02-21T04:14:51;51.57;;;21.53;;
18748;SDS011;9503;53.560;10.246;2024-02-21T04:17:17;50.20;;;21.50;;
18748;SDS011;9503;53.560;10.246;2024-02-21T04:19:44;52.27;;;23.77;;
18748;SDS011;9503;53.560;10.246;2024-02-21T04:22:10;50.67;;;22.73;;
18748;SDS011;9503;53.560;10.246;2024-02-21T04:24:38;52.80;;;21.23;;
18748;SDS011;9503;53.560;10.246;2024-02-21T04:27:05;63.27;;;24.07;;
18748;SDS011;9503;53.560;10.246;2024-02-21T04:29:31;57.03;;;22.27;;
18748;SDS011;9503;53.560;10.246;2024-02-21T04:31:58;53.53;;;21.27;;
18748;SDS011;9503;53.560;10.246;2024-02-21T04:34:25;55.93;;;23.57;;
18748;SDS011;9503;53.560;10.246;2024-02-21T04:36:51;48.97;;;21.33;;
18748;SDS011;9503;53.560;10.246;2024-02-21T04:39:18;61.77;;;22.30;;
18748;SDS011;9503;53.560;10.246;2024-02-21T04:41:46;56.10;;;25.07;;
18748;SDS011;9503;53.560;10.246;2024-02-21T04:44:12;54.77;;;22.33;;
18748;SDS011;9503;53.560;10.246;2024-02-21T04:46:41;61.47;;;23.80;;
18748;SDS011;9503;53.560;10.246;2024-02-21T04:49:08;51.10;;;21.60;;
18748;SDS011;9503;53.560;10.246;2024-02-21T04:51:35;65.33;;;24.03;;
18748;SDS011;9503;53.560;10.246;2024-02-21T04:54:01;61.63;;;21.90;;
18748;SDS011;9503;53.560;10.246;2024-02-21T04:56:28;62.03;;;22.73;;
18748;SDS011;9503;53.560;10.246;2024-02-21T04:58:56;53.50;;;23.60;;
18748;SDS011;9503;53.560;10.246;2024-02-21T05:01:23;57.80;;;22.23;;
18748;SDS011;9503;53.560;10.246;2024-02-21T05:03:50;57.07;;;22.00;;
18748;SDS011;9503;53.560;10.246;2024-02-21T05:06:16;47.03;;;21.77;;
18748;SDS011;9503;53.560;10.246;2024-02-21T05:08:44;49.73;;;21.63;;
18748;SDS011;9503;53.560;10.246;2024-02-21T05:11:10;57.83;;;21.77;;
18748;SDS011;9503;53.560;10.246;2024-02-21T05:13:37;52.83;;;21.20;;
18748;SDS011;9503;53.560;10.246;2024-02-21T05:16:05;50.50;;;20.40;;
18748;SDS011;9503;53.560;10.246;2024-02-21T05:18:32;46.97;;;20.00;;
18748;SDS011;9503;53.560;10.246;2024-02-21T05:20:59;53.00;;;20.13;;
18748;SDS011;9503;53.560;10.246;2024-02-21T05:23:25;45.90;;;19.67;;
18748;SDS011;9503;53.560;10.246;2024-02-21T05:25:52;47.03;;;20.03;;
18748;SDS011;9503;53.560;10.246;2024-02-21T05:28:19;44.77;;;19.83;;
18748;SDS011;9503;53.560;10.246;2024-02-21T05:30:45;46.33;;;20.23;;
18748;SDS011;9503;53.560;10.246;2024-02-21T05:33:13;42.60;;;20.03;;
18748;SDS011;9503;53.560;10.246;2024-02-21T05:35:46;45.77;;;19.23;;
18748;SDS011;9503;53.560;10.246;2024-02-21T05:38:12;43.33;;;19.57;;
18748;SDS011;9503;53.560;10.246;2024-02-21T05:40:39;44.83;;;18.97;;
18748;SDS011;9503;53.560;10.246;2024-02-21T05:43:06;42.73;;;18.97;;
18748;SDS011;9503;53.560;10.246;2024-02-21T05:45:33;43.83;;;18.43;;
18748;SDS011;9503;53.560;10.246;2024-02-21T05:48:00;37.47;;;17.67;;
18748;SDS011;9503;53.560;10.246;2024-02-21T05:50:29;46.20;;;18.57;;
18748;SDS011;9503;53.560;10.246;2024-02-21T05:52:55;38.10;;;17.23;;
18748;SDS011;9503;53.560;10.246;2024-02-21T05:55:22;44.70;;;18.47;;
18748;SDS011;9503;53.560;10.246;2024-02-21T05:57:49;44.87;;;17.47;;
18748;SDS011;9503;53.560;10.246;2024-02-21T06:00:15;37.40;;;16.83;;
18748;SDS011;9503;53.560;10.246;2024-02-21T06:02:42;43.30;;;18.17;;
18748;SDS011;9503;53.560;10.246;2024-02-21T06:05:09;38.70;;;14.77;;
18748;SDS011;9503;53.560;10.246;2024-02-21T06:07:38;30.73;;;15.13;;
18748;SDS011;9503;53.560;10.246;2024-02-21T06:10:05;37.70;;;15.57;;
18748;SDS011;9503;53.560;10.246;2024-02-21T06:12:32;32.73;;;14.53;;
18748;SDS011;9503;53.560;10.246;2024-02-21T06:14:59;29.90;;;13.53;;
18748;SDS011;9503;53.560;10.246;2024-02-21T06:17:25;31.87;;;13.77;;
18748;SDS011;9503;53.560;10.246;2024-02-21T06:19:52;29.27;;;14.57;;
18748;SDS011;9503;53.560;10.246;2024-02-21T06:22:19;30.53;;;13.57;;
18748;SDS011;9503;53.560;10.246;2024-02-21T06:24:47;29.87;;;12.80;;
18748;SDS011;9503;53.560;10.246;2024-02-21T06:27:13;27.70;;;13.87;;
18748;SDS011;9503;53.560;10.246;2024-02-21T06:29:41;28.53;;;12.63;;
18748;SDS011;9503;53.560;10.246;2024-02-21T06:32:07;28.70;;;13.40;;
18748;SDS011;9503;53.560;10.246;2024-02-21T06:34:34;29.03;;;12.80;;
18748;SDS011;9503;53.560;10.246;2024-02-21T06:37:01;27.73;;;11.93;;
18748;SDS011;9503;53.560;10.246;2024-02-21T06:39:28;25.83;;;12.43;;
18748;SDS011;9503;53.560;10.246;2024-02-21T06:41:56;32.50;;;12.33;;
18748;SDS011;9503;53.560;10.246;2024-02-21T06:44:22;28.00;;;12.30;;
18748;SDS011;9503;53.560;10.246;2024-02-21T06:46:49;29.40;;;12.90;;
18748;SDS011;9503;53.560;10.246;2024-02-21T06:49:16;30.37;;;13.07;;
18748;SDS011;9503;53.560;10.246;2024-02-21T06:51:42;27.33;;;12.00;;
18748;SDS011;9503;53.560;10.246;2024-02-21T06:54:09;29.27;;;13.83;;
18748;SDS011;9503;53.560;10.246;2024-02-21T06:56:36;27.63;;;11.83;;
18748;SDS011;9503;53.560;10.246;2024-02-21T06:59:04;25.53;;;12.33;;
18748;SDS011;9503;53.560;10.246;2024-02-21T07:01:31;22.60;;;11.90;;
18748;SDS011;9503;53.560;10.246;2024-02-21T07:03:58;24.43;;;12.37;;
18748;SDS011;9503;53.560;10.246;2024-02-21T07:06:24;21.73;;;11.27;;
18748;SDS011;9503;53.560;10.246;2024-02-21T07:08:51;22.33;;;11.07;;
18748;SDS011;9503;53.560;10.246;2024-02-21T07:11:18;22.07;;;9.60;;
18748;SDS011;9503;53.560;10.246;2024-02-21T07:13:45;17.13;;;9.53;;
18748;SDS011;9503;53.560;10.246;2024-02-21T07:16:13;19.50;;;9.47;;
18748;SDS011;9503;53.560;10.246;2024-02-21T07:18:39;22.20;;;10.90;;
18748;SDS011;9503;53.560;10.246;2024-02-21T07:21:06;23.27;;;11.13;;
18748;SDS011;9503;53.560;10.246;2024-02-21T07:23:32;23.07;;;11.30;;
18748;SDS011;9503;53.560;10.246;2024-02-21T07:25:59;22.73;;;11.07;;
18748;SDS011;9503;53.560;10.246;2024-02-21T07:28:25;20.67;;;10.90;;
18748;SDS011;9503;53.560;10.246;2024-02-21T07:30:52;23.97;;;12.07;;
18748;SDS011;9503;53.560;10.246;2024-02-21T07:33:20;23.57;;;12.43;;
18748;SDS011;9503;53.560;10.246;2024-02-21T07:35:47;23.37;;;11.40;;
18748;SDS011;9503;53.560;10.246;2024-02-21T07:38:13;21.53;;;10.97;;
18748;SDS011;9503;53.560;10.246;2024-02-21T07:40:40;21.57;;;10.03;;
18748;SDS011;9503;53.560;10.246;2024-02-21T07:43:06;18.53;;;9.70;;
18748;SDS011;9503;53.560;10.246;2024-02-21T07:45:33;18.30;;;9.53;;
18748;SDS011;9503;53.560;10.246;2024-02-21T07:48:00;21.90;;;10.67;;
18748;SDS011;9503;53.560;10.246;2024-02-21T07:50:28;20.80;;;9.90;;
18748;SDS011;9503;53.560;10.246;2024-02-21T07:52:55;20.10;;;9.77;;
18748;SDS011;9503;53.560;10.246;2024-02-21T07:55:21;24.23;;;10.43;;
18748;SDS011;9503;53.560;10.246;2024-02-21T07:57:48;20.03;;;9.67;;
18748;SDS011;9503;53.560;10.246;2024-02-21T08:00:16;19.43;;;9.10;;
18748;SDS011;9503;53.560;10.246;2024-02-21T08:02:44;28.47;;;10.57;;
18748;SDS011;9503;53.560;10.246;2024-02-21T08:05:11;23.30;;;8.83;;
18748;SDS011;9503;53.560;10.246;2024-02-21T08:07:39;22.40;;;9.77;;
18748;SDS011;9503;53.560;10.246;2024-02-21T08:10:07;20.53;;;9.33;;
18748;SDS011;9503;53.560;10.246;2024-02-21T08:12:34;18.57;;;9.10;;
18748;SDS011;9503;53.560;10.246;2024-02-21T08:15:01;15.27;;;8.00;;
18748;SDS011;9503;53.560;10.246;2024-02-21T08:17:28;22.30;;;9.57;;
18748;SDS011;9503;53.560;10.246;2024-02-21T08:19:55;14.97;;;7.63;;
18748;SDS011;9503;53.560;10.246;2024-02-21T08:22:22;16.23;;;8.37;;
18748;SDS011;9503;53.560;10.246;2024-02-21T08:24:50;17.50;;;8.70;;
18748;SDS011;9503;53.560;10.246;2024-02-21T08:27:17;17.23;;;8.07;;
18748;SDS011;9503;53.560;10.246;2024-02-21T08:29:43;16.27;;;8.43;;
18748;SDS011;9503;53.560;10.246;2024-02-21T08:32:10;15.13;;;8.20;;
18748;SDS011;9503;53.560;10.246;2024-02-21T08:34:36;16.57;;;8.10;;
18748;SDS011;9503;53.560;10.246;2024-02-21T08:37:03;14.27;;;7.37;;
18748;SDS011;9503;53.560;10.246;2024-02-21T08:39:30;13.50;;;6.57;;
18748;SDS011;9503;53.560;10.246;2024-02-21T08:41:58;17.87;;;8.03;;
18748;SDS011;9503;53.560;10.246;2024-02-21T08:44:25;15.47;;;6.77;;
18748;SDS011;9503;53.560;10.246;2024-02-21T08:46:53;16.60;;;5.97;;
18748;SDS011;9503;53.560;10.246;2024-02-21T08:49:20;17.63;;;5.90;;
18748;SDS011;9503;53.560;10.246;2024-02-21T08:51:47;18.93;;;6.73;;
18748;SDS011;9503;53.560;10.246;2024-02-21T08:54:13;14.97;;;5.33;;
18748;SDS011;9503;53.560;10.246;2024-02-21T08:56:40;15.20;;;4.90;;
18748;SDS011;9503;53.560;10.246;2024-02-21T08:59:08;15.13;;;4.70;;
18748;SDS011;9503;53.560;10.246;2024-02-21T09:01:34;21.47;;;4.43;;
18748;SDS011;9503;53.560;10.246;2024-02-21T09:04:00;14.33;;;4.47;;
18748;SDS011;9503;53.560;10.246;2024-02-21T09:06:27;16.20;;;4.67;;
18748;SDS011;9503;53.560;10.246;2024-02-21T09:08:55;19.20;;;5.37;;
18748;SDS011;9503;53.560;10.246;2024-02-21T09:11:22;16.73;;;4.40;;
18748;SDS011;9503;53.560;10.246;2024-02-21T09:13:49;19.57;;;4.67;;
18748;SDS011;9503;53.560;10.246;2024-02-21T09:16:17;14.10;;;4.23;;
18748;SDS011;9503;53.560;10.246;2024-02-21T09:18:43;18.57;;;4.20;;
18748;SDS011;9503;53.560;10.246;2024-02-21T09:21:11;12.73;;;3.47;;
18748;SDS011;9503;53.560;10.246;2024-02-21T09:23:38;16.13;;;4.30;;
18748;SDS011;9503;53.560;10.246;2024-02-21T09:26:04;16.50;;;3.70;;
18748;SDS011;9503;53.560;10.246;2024-02-21T09:28:31;20.17;;;4.20;;
18748;SDS011;9503;53.560;10.246;2024-02-21T09:30:59;13.17;;;3.97;;
18748;SDS011;9503;53.560;10.246;2024-02-21T09:33:28;11.53;;;4.47;;
18748;SDS011;9503;53.560;10.246;2024-02-21T09:35:55;14.07;;;4.50;;
18748;SDS011;9503;53.560;10.246;2024-02-21T09:38:21;11.17;;;3.77;;
18748;SDS011;9503;53.560;10.246;2024-02-21T09:40:48;16.77;;;5.17;;
18748;SDS011;9503;53.560;10.246;2024-02-21T09:43:24;13.07;;;3.90;;
18748;SDS011;9503;53.560;10.246;2024-02-21T09:45:50;15.00;;;4.70;;
18748;SDS011;9503;53.560;10.246;2024-02-21T09:48:34;12.83;;;4.83;;
18748;SDS011;9503;53.560;10.246;2024-02-21T09:51:12;16.03;;;4.53;;
18748;SDS011;9503;53.560;10.246;2024-02-21T09:53:41;16.00;;;5.43;;
18748;SDS011;9503;53.560;10.246;2024-02-21T09:56:09;12.67;;;5.23;;
18748;SDS011;9503;53.560;10.246;2024-02-21T09:58:36;11.40;;;4.50;;
18748;SDS011;9503;53.560;10.246;2024-02-21T10:01:04;15.97;;;6.00;;
18748;SDS011;9503;53.560;10.246;2024-02-21T10:03:33;13.07;;;4.70;;
18748;SDS011;9503;53.560;10.246;2024-02-21T10:06:00;10.10;;;4.83;;
18748;SDS011;9503;53.560;10.246;2024-02-21T10:08:27;12.77;;;4.83;;
18748;SDS011;9503;53.560;10.246;2024-02-21T10:10:54;15.77;;;5.17;;
18748;SDS011;9503;53.560;10.246;2024-02-21T10:13:24;16.43;;;6.60;;
18748;SDS011;9503;53.560;10.246;2024-02-21T10:16:05;13.13;;;6.73;;
18748;SDS011;9503;53.560;10.246;2024-02-21T10:18:34;16.10;;;6.33;;
18748;SDS011;9503;53.560;10.246;2024-02-21T10:21:01;12.70;;;6.93;;
18748;SDS011;9503;53.560;10.246;2024-02-21T10:23:29;14.97;;;6.27;;
18748;SDS011;9503;53.560;10.246;2024-02-21T10:26:04;16.90;;;6.40;;
18748;SDS011;9503;53.560;10.246;2024-02-21T10:28:31;13.90;;;6.77;;
18748;SDS011;9503;53.560;10.246;2024-02-21T10:30:58;11.23;;;6.50;;
18748;SDS011;9503;53.560;10.246;2024-02-21T10:33:24;13.97;;;6.63;;
18748;SDS011;9503;53.560;10.246;2024-02-21T10:35:54;10.77;;;6.27;;
18748;SDS011;9503;53.560;10.246;2024-02-21T10:38:20;14.37;;;6.53;;
18748;SDS011;9503;53.560;10.246;2024-02-21T10:40:47;13.63;;;6.70;;
18748;SDS011;9503;53.560;10.246;2024-02-21T10:43:17;12.13;;;6.63;;
18748;SDS011;9503;53.560;10.246;2024-02-21T10:45:45;12.97;;;6.80;;
18748;SDS011;9503;53.560;10.246;2024-02-21T10:48:15;18.67;;;8.40;;
18748;SDS011;9503;53.560;10.246;2024-02-21T10:50:56;19.13;;;8.50;;
18748;SDS011;9503;53.560;10.246;2024-02-21T10:53:25;19.87;;;9.50;;
18748;SDS011;9503;53.560;10.246;2024-02-21T10:56:04;23.83;;;10.07;;
18748;SDS011;9503;53.560;10.246;2024-02-21T10:58:37;20.33;;;8.63;;
18748;SDS011;9503;53.560;10.246;2024-02-21T11:01:05;28.27;;;10.67;;
18748;SDS011;9503;53.560;10.246;2024-02-21T11:03:33;28.30;;;10.60;;
18748;SDS011;9503;53.560;10.246;2024-02-21T11:06:01;29.10;;;11.83;;
18748;SDS011;9503;53.560;10.246;2024-02-21T11:08:30;27.90;;;12.17;;
18748;SDS011;9503;53.560;10.246;2024-02-21T11:10:56;29.47;;;12.50;;
18748;SDS011;9503;53.560;10.246;2024-02-21T11:13:30;29.40;;;12.87;;
18748;SDS011;9503;53.560;10.246;2024-02-21T11:16:05;34.80;;;13.50;;
18748;SDS011;9503;53.560;10.246;2024-02-21T11:18:34;39.47;;;14.67;;
18748;SDS011;9503;53.560;10.246;2024-02-21T11:21:02;35.63;;;14.67;;
18748;SDS011;9503;53.560;10.246;2024-02-21T11:23:29;34.03;;;14.27;;
18748;SDS011;9503;53.560;10.246;2024-02-21T11:26:03;33.13;;;13.67;;
18748;SDS011;9503;53.560;10.246;2024-02-21T11:28:31;38.47;;;15.63;;
18748;SDS011;9503;53.560;10.246;2024-02-21T11:31:06;32.40;;;15.50;;
18748;SDS011;9503;53.560;10.246;2024-02-21T11:33:33;39.67;;;14.50;;
18748;SDS011;9503;53.560;10.246;2024-02-21T11:36:01;36.30;;;13.97;;
18748;SDS011;9503;53.560;10.246;2024-02-21T11:38:29;31.20;;;13.27;;
18748;SDS011;9503;53.560;10.246;2024-02-21T11:40:56;31.13;;;13.07;;
18748;SDS011;9503;53.560;10.246;2024-02-21T11:43:23;34.17;;;14.50;;
18748;SDS011;9503;53.560;10.246;2024-02-21T11:45:50;33.17;;;13.80;;
18748;SDS011;9503;53.560;10.246;2024-02-21T11:48:17;34.77;;;13.77;;
18748;SDS011;9503;53.560;10.246;2024-02-21T11:50:52;31.40;;;12.53;;
18748;SDS011;9503;53.560;10.246;2024-02-21T11:53:21;33.00;;;12.43;;
18748;SDS011;9503;53.560;10.246;2024-02-21T11:55:47;35.97;;;12.67;;
18748;SDS011;9503;53.560;10.246;2024-02-21T11:58:14;34.63;;;12.60;;
18748;SDS011;9503;53.560;10.246;2024-02-21T12:00:41;29.53;;;12.37;;
18748;SDS011;9503;53.560;10.246;2024-02-21T12:03:08;28.73;;;13.17;;
18748;SDS011;9503;53.560;10.246;2024-02-21T12:05:35;29.10;;;12.00;;
18748;SDS011;9503;53.560;10.246;2024-02-21T12:08:02;33.87;;;13.30;;
18748;SDS011;9503;53.560;10.246;2024-02-21T12:10:31;31.13;;;11.80;;
18748;SDS011;9503;53.560;10.246;2024-02-21T12:13:05;28.03;;;12.00;;
18748;SDS011;9503;53.560;10.246;2024-02-21T12:15:33;33.13;;;12.37;;
18748;SDS011;9503;53.560;10.246;2024-02-21T12:17:59;24.93;;;11.93;;
18748;SDS011;9503;53.560;10.246;2024-02-21T12:20:26;31.13;;;12.60;;
18748;SDS011;9503;53.560;10.246;2024-02-21T12:22:53;25.73;;;12.00;;
18748;SDS011;9503;53.560;10.246;2024-02-21T12:25:21;26.93;;;11.50;;
18748;SDS011;9503;53.560;10.246;2024-02-21T12:27:52;25.77;;;11.80;;
18748;SDS011;9503;53.560;10.246;2024-02-21T12:30:19;28.40;;;10.97;;
18748;SDS011;9503;53.560;10.246;2024-02-21T12:32:46;31.93;;;12.63;;
18748;SDS011;9503;53.560;10.246;2024-02-21T12:35:13;30.73;;;13.43;;
18748;SDS011;9503;53.560;10.246;2024-02-21T12:37:40;28.63;;;12.17;;
18748;SDS011;9503;53.560;10.246;2024-02-21T12:40:07;30.10;;;12.23;;
18748;SDS011;9503;53.560;10.246;2024-02-21T12:42:35;30.23;;;12.70;;
18748;SDS011;9503;53.560;10.246;2024-02-21T12:45:04;36.03;;;14.27;;
18748;SDS011;9503;53.560;10.246;2024-02-21T12:47:31;32.87;;;12.67;;
18748;SDS011;9503;53.560;10.246;2024-02-21T12:49:58;28.23;;;12.67;;
18748;SDS011;9503;53.560;10.246;2024-02-21T12:52:24;29.80;;;13.00;;
18748;SDS011;9503;53.560;10.246;2024-02-21T12:54:51;32.83;;;13.30;;
18748;SDS011;9503;53.560;10.246;2024-02-21T12:57:21;33.17;;;13.53;;
18748;SDS011;9503;53.560;10.246;2024-02-21T12:59:48;30.67;;;13.63;;
18748;SDS011;9503;53.560;10.246;2024-02-21T13:02:16;37.43;;;12.97;;
18748;SDS011;9503;53.560;10.246;2024-02-21T13:04:43;27.67;;;12.50;;
18748;SDS011;9503;53.560;10.246;2024-02-21T13:07:09;27.00;;;11.27;;
18748;SDS011;9503;53.560;10.246;2024-02-21T13:09:36;33.00;;;13.20;;
18748;SDS011;9503;53.560;10.246;2024-02-21T13:12:03;29.33;;;12.70;;
18748;SDS011;9503;53.560;10.246;2024-02-21T13:14:30;34.10;;;12.93;;
18748;SDS011;9503;53.560;10.246;2024-02-21T13:16:58;32.97;;;14.47;;
18748;SDS011;9503;53.560;10.246;2024-02-21T13:19:26;34.93;;;12.37;;
18748;SDS011;9503;53.560;10.246;2024-02-21T13:21:52;31.87;;;12.57;;
18748;SDS011;9503;53.560;10.246;2024-02-21T13:24:19;34.03;;;14.57;;
18748;SDS011;9503;53.560;10.246;2024-02-21T13:26:45;28.83;;;12.77;;
18748;SDS011;9503;53.560;10.246;2024-02-21T13:29:12;32.03;;;13.93;;
18748;SDS011;9503;53.560;10.246;2024-02-21T13:31:39;30.57;;;12.67;;
18748;SDS011;9503;53.560;10.246;2024-02-21T13:34:05;31.07;;;13.17;;
18748;SDS011;9503;53.560;10.246;2024-02-21T13:36:35;26.07;;;12.80;;
18748;SDS011;9503;53.560;10.246;2024-02-21T13:39:01;29.30;;;13.33;;
18748;SDS011;9503;53.560;10.246;2024-02-21T13:41:30;27.50;;;13.00;;
18748;SDS011;9503;53.560;10.246;2024-02-21T13:43:56;29.23;;;12.97;;
18748;SDS011;9503;53.560;10.246;2024-02-21T13:46:25;35.40;;;12.83;;
18748;SDS011;9503;53.560;10.246;2024-02-21T13:48:52;28.83;;;13.23;;
18748;SDS011;9503;53.560;10.246;2024-02-21T13:51:29;23.97;;;11.43;;
18748;SDS011;9503;53.560;10.246;2024-02-21T13:53:57;25.10;;;12.07;;
18748;SDS011;9503;53.560;10.246;2024-02-21T13:56:24;28.67;;;13.10;;
18748;SDS011;9503;53.560;10.246;2024-02-21T13:58:51;30.57;;;13.83;;
18748;SDS011;9503;53.560;10.246;2024-02-21T14:01:17;23.67;;;13.43;;
18748;SDS011;9503;53.560;10.246;2024-02-21T14:03:44;28.40;;;13.20;;
18748;SDS011;9503;53.560;10.246;2024-02-21T14:06:10;28.87;;;11.93;;
18748;SDS011;9503;53.560;10.246;2024-02-21T14:08:37;24.90;;;12.13;;
18748;SDS011;9503;53.560;10.246;2024-02-21T14:11:06;35.27;;;13.87;;
18748;SDS011;9503;53.560;10.246;2024-02-21T14:13:32;26.77;;;12.67;;
18748;SDS011;9503;53.560;10.246;2024-02-21T14:15:59;21.70;;;12.50;;
18748;SDS011;9503;53.560;10.246;2024-02-21T14:18:26;22.50;;;11.47;;
18748;SDS011;9503;53.560;10.246;2024-02-21T14:20:52;26.83;;;12.23;;
18748;SDS011;9503;53.560;10.246;2024-02-21T14:23:19;25.77;;;12.87;;
18748;SDS011;9503;53.560;10.246;2024-02-21T14:25:46;25.10;;;12.50;;